createdAt,value
2018-07-11T00:01:07.886Z,56.69
2018-07-11T00:03:47.865Z,57.29
2018-07-11T00:06:16.763Z,56.98
2018-07-11T00:08:44.458Z,58.03
2018-07-11T00:11:12.499Z,57.01
2018-07-11T00:13:41.874Z,56.95
2018-07-11T00:16:09.773Z,57.31
2018-07-11T00:18:37.599Z,56.13
2018-07-11T00:21:05.452Z,56.69
2018-07-11T00:23:33.265Z,56.52
2018-07-11T00:26:01.211Z,57.19
2018-07-11T00:28:28.914Z,57.93
2018-07-11T00:30:57.865Z,58.56
2018-07-11T00:33:25.703Z,57.94
2018-07-11T00:35:53.465Z,58.32
2018-07-11T00:38:21.846Z,58.55
2018-07-11T00:40:50.271Z,58.47
2018-07-11T00:43:18.183Z,58.01
2018-07-11T00:45:46.141Z,58.47
2018-07-11T00:48:14.854Z,57.61
2018-07-11T00:50:42.742Z,58.64
2018-07-11T00:53:10.970Z,58.58
2018-07-11T00:55:38.762Z,58.57
2018-07-11T00:58:19.248Z,58.42
2018-07-11T01:01:05.368Z,58.19
2018-07-11T01:03:35.166Z,58.52
2018-07-11T01:06:03.072Z,58.63
2018-07-11T01:08:34.082Z,58.43
2018-07-11T01:11:06.531Z,58.59
2018-07-11T01:13:34.454Z,57.91
2018-07-11T01:16:02.309Z,58.02
2018-07-11T01:18:30.429Z,58.10
2018-07-11T01:20:58.083Z,58.84
2018-07-11T01:23:25.758Z,57.98
2018-07-11T01:25:53.870Z,58.34
2018-07-11T01:28:21.573Z,57.80
2018-07-11T01:30:49.314Z,57.31
2018-07-11T01:33:16.969Z,58.31
2018-07-11T01:35:44.614Z,57.31
2018-07-11T01:38:12.279Z,57.51
2018-07-11T01:40:39.926Z,56.79
2018-07-11T01:43:07.937Z,57.28
2018-07-11T01:45:35.563Z,56.96
2018-07-11T01:48:03.294Z,56.97
2018-07-11T01:50:31.197Z,57.11
2018-07-11T01:52:59.523Z,57.72
2018-07-11T01:55:27.986Z,57.37
2018-07-11T01:57:57.070Z,57.08
2018-07-11T02:00:25.328Z,56.98
2018-07-11T02:02:53.434Z,57.13
2018-07-11T02:05:21.122Z,57.72
2018-07-11T02:07:48.941Z,57.49
2018-07-11T02:10:34.857Z,57.75
2018-07-11T02:13:02.528Z,58.01
2018-07-11T02:15:30.280Z,59.05
2018-07-11T02:17:59.024Z,60.49
2018-07-11T02:20:26.691Z,59.49
2018-07-11T02:22:54.403Z,59.24
2018-07-11T02:25:22.375Z,59.44
2018-07-11T02:27:50.518Z,59.29
2018-07-11T02:30:18.177Z,59.54
2018-07-11T02:32:45.924Z,57.85
2018-07-11T02:35:13.546Z,57.44
2018-07-11T02:37:41.186Z,58.46
2018-07-11T02:40:08.870Z,58.77
2018-07-11T02:42:36.552Z,58.65
2018-07-11T02:45:04.330Z,58.44
2018-07-11T02:47:37.835Z,58.49
2018-07-11T02:50:05.492Z,58.26
2018-07-11T02:52:33.190Z,58.04
2018-07-11T02:55:00.894Z,58.09
2018-07-11T02:57:28.546Z,58.92
2018-07-11T02:59:56.310Z,58.84
2018-07-11T03:02:24.005Z,58.38
2018-07-11T03:04:51.706Z,57.86
2018-07-11T03:07:19.370Z,58.57
2018-07-11T03:09:47.290Z,59.15
2018-07-11T03:12:14.998Z,58.58
2018-07-11T03:14:46.137Z,58.35
2018-07-11T03:17:13.802Z,59.49
2018-07-11T03:19:41.561Z,59.01
2018-07-11T03:22:09.225Z,59.28
2018-07-11T03:24:36.894Z,58.67
2018-07-11T03:27:04.899Z,58.84
2018-07-11T03:29:33.139Z,58.59
2018-07-11T03:32:00.750Z,59.29
2018-07-11T03:34:28.708Z,58.81
2018-07-11T03:36:56.465Z,58.62
2018-07-11T03:39:24.094Z,58.91
2018-07-11T03:41:51.825Z,58.81
2018-07-11T03:44:19.556Z,59.02
2018-07-11T03:46:47.233Z,58.31
2018-07-11T03:49:14.965Z,58.48
2018-07-11T03:51:42.952Z,58.50
2018-07-11T03:54:10.601Z,58.37
2018-07-11T03:56:57.599Z,58.39
2018-07-11T03:59:25.229Z,58.07
2018-07-11T04:01:52.997Z,57.94
2018-07-11T04:04:20.730Z,58.42
2018-07-11T04:06:48.394Z,58.11
2018-07-11T04:09:16.245Z,58.75
2018-07-11T04:11:44.829Z,58.66
2018-07-11T04:14:12.549Z,58.60
2018-07-11T04:16:40.338Z,58.43
2018-07-11T04:19:08.037Z,58.44
2018-07-11T04:21:35.759Z,57.63
2018-07-11T04:24:03.826Z,57.80
2018-07-11T04:26:31.497Z,57.24
2018-07-11T04:28:59.247Z,57.43
2018-07-11T04:31:26.949Z,57.64
2018-07-11T04:33:54.588Z,57.78
2018-07-11T04:36:22.262Z,58.25
2018-07-11T04:38:50.034Z,57.65
2018-07-11T04:41:17.738Z,57.90
2018-07-11T04:43:45.410Z,58.57
2018-07-11T04:46:13.163Z,58.21
2018-07-11T04:48:41.646Z,58.06
2018-07-11T04:51:09.455Z,58.40
2018-07-11T04:53:37.210Z,57.86
2018-07-11T04:56:05.326Z,58.26
2018-07-11T04:58:33.277Z,58.25
2018-07-11T05:01:00.998Z,58.48
2018-07-11T05:03:29.031Z,57.89
2018-07-11T05:05:56.682Z,58.92
2018-07-11T05:08:24.955Z,58.66
2018-07-11T05:10:52.662Z,58.14
2018-07-11T05:13:20.700Z,59.16
2018-07-11T05:15:48.398Z,58.85
2018-07-11T05:18:16.185Z,58.84
2018-07-11T05:20:45.220Z,58.62
2018-07-11T05:23:13.017Z,57.91
2018-07-11T05:25:40.958Z,57.95
2018-07-11T05:28:08.585Z,57.28
2018-07-11T05:30:36.275Z,58.29
2018-07-11T05:33:04.015Z,57.36
2018-07-11T05:35:32.511Z,58.04
2018-07-11T05:38:00.237Z,57.95
2018-07-11T05:40:27.994Z,57.04
2018-07-11T05:42:55.929Z,57.68
2018-07-11T05:45:23.681Z,57.06
2018-07-11T05:47:52.370Z,57.70
2018-07-11T05:50:20.023Z,56.50
2018-07-11T05:52:47.641Z,56.91
2018-07-11T05:55:15.350Z,57.58
2018-07-11T05:57:43.025Z,57.09
2018-07-11T06:00:10.702Z,56.73
2018-07-11T06:02:38.473Z,57.18
2018-07-11T06:05:06.090Z,57.41
2018-07-11T06:07:33.717Z,57.70
2018-07-11T06:10:02.050Z,57.04
2018-07-11T06:12:29.670Z,57.17
2018-07-11T06:14:57.373Z,57.75
2018-07-11T06:17:24.999Z,57.11
2018-07-11T06:19:52.737Z,56.59
2018-07-11T06:22:20.373Z,57.29
2018-07-11T06:24:48.002Z,58.05
2018-07-11T06:27:15.693Z,57.19
2018-07-11T06:29:43.309Z,57.27
2018-07-11T06:32:11.010Z,57.89
2018-07-11T06:34:38.661Z,57.76
2018-07-11T06:37:06.312Z,57.29
2018-07-11T06:39:34.055Z,57.29
2018-07-11T06:42:01.810Z,58.09
2018-07-11T06:44:29.543Z,57.26
2018-07-11T06:46:57.217Z,57.62
2018-07-11T06:49:24.818Z,57.01
2018-07-11T06:51:52.522Z,57.00
2018-07-11T06:54:20.151Z,56.50
2018-07-11T06:56:47.803Z,56.92
2018-07-11T06:59:15.425Z,56.69
2018-07-11T07:01:43.054Z,56.72
2018-07-11T07:04:10.661Z,56.57
2018-07-11T07:06:38.446Z,56.68
2018-07-11T07:09:06.414Z,56.21
2018-07-11T07:11:34.263Z,54.88
2018-07-11T07:14:01.925Z,55.03
2018-07-11T07:16:29.711Z,53.30
2018-07-11T07:18:57.302Z,51.63
2018-07-11T07:21:24.933Z,51.15
2018-07-11T07:23:52.649Z,51.08
2018-07-11T07:28:41.139Z,50.18
2018-07-11T07:31:08.807Z,48.45
2018-07-11T07:33:36.463Z,48.94
2018-07-11T07:36:04.183Z,48.20
2018-07-11T07:38:38.099Z,48.70
2018-07-11T07:41:06.835Z,48.99
2018-07-11T07:43:35.086Z,50.24
2018-07-11T07:46:02.849Z,49.51
2018-07-11T07:48:31.163Z,50.06
2018-07-11T07:50:58.942Z,49.95
2018-07-11T07:53:26.701Z,51.63
2018-07-11T07:55:54.436Z,50.48
2018-07-11T07:58:22.194Z,50.74
2018-07-11T08:00:50.035Z,50.80
2018-07-11T08:03:17.724Z,48.91
2018-07-11T08:05:45.453Z,48.05
2018-07-11T08:08:13.142Z,45.78
2018-07-11T08:10:40.911Z,46.06
2018-07-11T08:13:08.632Z,46.57
2018-07-11T08:15:36.365Z,46.40
2018-07-11T08:18:04.365Z,47.34
2018-07-11T08:20:32.085Z,47.09
2018-07-11T08:23:23.312Z,47.23
2018-07-11T08:26:08.585Z,47.91
2018-07-11T08:31:53.472Z,48.46
2018-07-11T08:34:54.017Z,48.35
2018-07-11T08:37:38.863Z,48.56
2018-07-11T08:42:27.810Z,47.83
2018-07-11T08:46:11.821Z,47.39
2018-07-11T08:53:12.635Z,45.54
2018-07-11T08:56:17.428Z,43.87
2018-07-11T09:01:25.475Z,43.29
2018-07-11T09:06:14.983Z,45.26
2018-07-11T09:09:09.443Z,45.45
2018-07-11T09:14:10.499Z,46.20
2018-07-11T09:16:58.747Z,46.14
2018-07-11T09:20:15.747Z,46.29
2018-07-11T09:23:29.192Z,46.63
2018-07-11T09:25:56.877Z,47.15
2018-07-11T09:28:24.831Z,46.33
2018-07-11T09:30:52.575Z,45.41
2018-07-11T09:33:20.455Z,43.23
2018-07-11T09:35:48.195Z,42.58
2018-07-11T09:38:15.994Z,44.61
2018-07-11T09:40:43.700Z,44.85
2018-07-11T09:43:11.888Z,43.09
2018-07-11T09:45:39.677Z,43.30
2018-07-11T09:48:07.411Z,42.64
2018-07-11T09:50:35.151Z,41.96
2018-07-11T09:53:02.890Z,42.38
2018-07-11T09:55:30.743Z,42.57
2018-07-11T09:57:58.498Z,42.25
2018-07-11T10:00:32.011Z,42.62
2018-07-11T10:03:00.092Z,42.35
2018-07-11T10:05:28.227Z,41.67
2018-07-11T10:07:56.003Z,40.64
2018-07-11T10:10:34.595Z,40.09
2018-07-11T10:13:02.266Z,39.95
2018-07-11T10:15:29.919Z,39.41
2018-07-11T10:17:57.652Z,37.62
2018-07-11T10:20:25.333Z,37.65
2018-07-11T10:22:53.097Z,37.18
2018-07-11T10:25:20.869Z,36.82
2018-07-11T10:28:04.807Z,37.50
2018-07-11T10:30:32.530Z,37.86
2018-07-11T10:33:00.219Z,38.28
2018-07-11T10:35:27.983Z,39.41
2018-07-11T10:37:55.713Z,39.95
2018-07-11T10:40:23.399Z,39.55
2018-07-11T10:42:51.155Z,40.37
2018-07-11T10:45:18.867Z,39.44
2018-07-11T10:48:10.314Z,41.29
2018-07-11T10:50:38.084Z,39.37
2018-07-11T10:53:05.838Z,39.90
2018-07-11T10:55:33.525Z,38.69
2018-07-11T10:58:01.321Z,39.62
2018-07-11T11:00:36.660Z,38.65
2018-07-11T11:02:57.818Z,38.15
2018-07-11T11:05:25.498Z,38.10
2018-07-11T11:07:53.303Z,38.46
2018-07-11T11:10:34.685Z,36.05
2018-07-11T11:13:02.386Z,36.49
2018-07-11T11:15:30.073Z,37.53
2018-07-11T11:17:57.774Z,39.01
2018-07-11T11:20:25.514Z,39.66
2018-07-11T11:22:53.162Z,38.91
2018-07-11T11:25:20.859Z,39.80
2018-07-11T11:27:49.001Z,38.78
2018-07-11T11:30:16.770Z,39.58
2018-07-11T11:32:44.487Z,40.02
2018-07-11T11:35:12.197Z,39.15
2018-07-11T11:37:39.863Z,39.07
2018-07-11T11:40:07.598Z,38.72
2018-07-11T11:42:35.640Z,38.54
2018-07-11T11:45:03.006Z,37.55
2018-07-11T11:47:30.689Z,37.35
2018-07-11T11:49:58.381Z,38.77
2018-07-11T11:52:26.126Z,39.43
2018-07-11T11:54:53.894Z,39.60
2018-07-11T11:57:21.825Z,37.18
2018-07-11T11:59:49.504Z,37.52
2018-07-11T12:02:17.217Z,36.52
2018-07-11T12:04:44.882Z,35.89
2018-07-11T12:07:12.620Z,36.74
2018-07-11T12:09:40.362Z,37.01
2018-07-11T12:12:08.209Z,36.85
2018-07-11T12:14:35.866Z,37.87
2018-07-11T12:17:03.571Z,37.79
2018-07-11T12:19:31.263Z,36.77
2018-07-11T12:21:59.094Z,36.52
2018-07-11T12:24:26.850Z,35.79
2018-07-11T12:26:54.598Z,34.99
2018-07-11T12:29:22.226Z,35.04
2018-07-11T12:31:49.971Z,33.67
2018-07-11T12:34:17.714Z,34.38
2018-07-11T12:36:45.414Z,36.67
2018-07-11T12:39:13.295Z,35.97
2018-07-11T12:41:40.993Z,34.77
2018-07-11T12:44:08.662Z,34.10
2018-07-11T12:46:36.642Z,33.50
2018-07-11T12:49:05.728Z,33.81
2018-07-11T12:51:33.796Z,32.73
2018-07-11T12:54:01.962Z,30.98
2018-07-11T12:56:29.703Z,30.61
2018-07-11T12:58:58.058Z,31.10
2018-07-11T13:01:27.174Z,30.89
2018-07-11T13:03:56.509Z,31.72
2018-07-11T13:06:25.869Z,28.99
2018-07-11T13:08:53.593Z,28.42
2018-07-11T13:11:22.039Z,30.33
2018-07-11T13:13:50.438Z,30.96
2018-07-11T13:16:18.303Z,31.52
2018-07-11T13:18:46.074Z,31.01
2018-07-11T13:21:13.745Z,32.20
2018-07-11T13:23:41.474Z,31.95
2018-07-11T13:26:09.371Z,31.99
2018-07-11T13:28:37.050Z,32.01
2018-07-11T13:31:04.834Z,31.58
2018-07-11T13:33:32.823Z,32.14
2018-07-11T13:36:00.577Z,32.56
2018-07-11T13:38:28.239Z,33.93
2018-07-11T13:40:56.010Z,33.20
2018-07-11T13:43:24.174Z,32.43
2018-07-11T13:45:51.897Z,32.47
2018-07-11T13:48:19.601Z,31.44
2018-07-11T13:50:47.373Z,31.27
2018-07-11T13:53:15.142Z,31.48
2018-07-11T13:55:42.974Z,31.32
2018-07-11T13:58:10.997Z,30.46
2018-07-11T14:00:38.849Z,31.34
2018-07-11T14:03:06.550Z,31.91
2018-07-11T14:05:34.302Z,31.62
2018-07-11T14:08:01.995Z,30.77
2018-07-11T14:10:29.698Z,32.28
2018-07-11T14:12:57.387Z,33.29
2018-07-11T14:15:25.106Z,31.22
2018-07-11T14:17:52.870Z,32.09
2018-07-11T14:20:20.679Z,31.37
2018-07-11T14:22:48.335Z,31.43
2018-07-11T14:25:17.306Z,30.38
2018-07-11T14:27:47.301Z,30.89
2018-07-11T14:30:14.995Z,30.97
2018-07-11T14:32:55.055Z,30.73
2018-07-11T14:35:22.858Z,30.59
2018-07-11T14:37:50.564Z,30.11
2018-07-11T14:40:18.343Z,31.20
2018-07-11T14:42:46.287Z,31.11
2018-07-11T14:45:14.440Z,30.16
2018-07-11T14:47:47.823Z,31.66
2018-07-11T14:50:15.594Z,30.75
2018-07-11T14:52:43.379Z,31.90
2018-07-11T14:55:11.086Z,30.85
2018-07-11T14:57:38.722Z,30.75
2018-07-11T15:00:06.510Z,31.46
2018-07-11T15:02:34.239Z,30.78
2018-07-11T15:05:04.135Z,30.51
2018-07-11T15:07:34.896Z,30.96
2018-07-11T15:10:03.060Z,30.86
2018-07-11T15:12:30.783Z,32.38
2018-07-11T15:14:58.567Z,32.25
2018-07-11T15:17:27.338Z,32.31
2018-07-11T15:19:55.214Z,31.13
2018-07-11T15:22:22.997Z,32.08
2018-07-11T15:24:50.663Z,32.27
2018-07-11T15:27:18.375Z,31.58
2018-07-11T15:29:46.090Z,32.95
2018-07-11T15:32:13.804Z,32.75
2018-07-11T15:34:41.926Z,33.23
2018-07-11T15:37:09.655Z,34.00
2018-07-11T15:39:38.054Z,33.45
2018-07-11T15:42:05.799Z,33.17
2018-07-11T15:44:33.623Z,33.05
2018-07-11T15:47:01.554Z,32.66
2018-07-11T15:49:30.067Z,33.55
2018-07-11T15:51:57.753Z,34.23
2018-07-11T15:54:25.431Z,34.30
2018-07-11T15:56:53.306Z,34.56
2018-07-11T15:59:25.848Z,34.01
2018-07-11T16:01:54.498Z,34.46
2018-07-11T16:04:29.405Z,33.64
2018-07-11T16:07:01.284Z,34.52
2018-07-11T16:09:29.282Z,35.27
2018-07-11T16:11:57.031Z,34.26
2018-07-11T16:14:24.646Z,35.47
2018-07-11T16:16:52.303Z,33.44
2018-07-11T16:19:20.007Z,33.44
2018-07-11T16:21:47.789Z,34.77
2018-07-11T16:24:15.850Z,33.91
2018-07-11T16:26:43.547Z,32.96
2018-07-11T16:29:11.287Z,33.02
2018-07-11T16:31:39.032Z,35.71
2018-07-11T16:34:06.670Z,34.44
2018-07-11T16:36:34.422Z,36.71
2018-07-11T16:39:02.223Z,35.80
2018-07-11T16:41:30.120Z,35.65
2018-07-11T16:43:57.770Z,35.13
2018-07-11T16:46:25.451Z,36.66
2018-07-11T16:48:53.260Z,37.35
2018-07-11T16:51:21.011Z,36.23
2018-07-11T16:53:48.709Z,35.39
2018-07-11T16:56:16.509Z,35.59
2018-07-11T16:58:50.696Z,35.56
2018-07-11T17:01:20.346Z,38.43
2018-07-11T17:03:48.034Z,37.39
2018-07-11T17:06:15.826Z,37.10
2018-07-11T17:08:49.310Z,37.33
2018-07-11T17:11:21.783Z,36.30
2018-07-11T17:13:54.111Z,36.68
2018-07-11T17:16:45.382Z,36.96
2018-07-11T17:19:25.344Z,38.40
2018-07-11T17:21:53.090Z,38.54
2018-07-11T17:24:21.516Z,38.43
2018-07-11T17:26:53.336Z,37.84
2018-07-11T17:29:23.478Z,38.84
2018-07-11T17:31:53.931Z,37.31
2018-07-11T17:34:22.402Z,36.83
2018-07-11T17:36:56.468Z,37.51
2018-07-11T17:39:24.763Z,38.48
2018-07-11T17:41:52.774Z,37.53
2018-07-11T17:44:20.971Z,36.45
2018-07-11T17:46:48.753Z,37.40
2018-07-11T17:49:26.382Z,38.00
2018-07-11T17:52:01.085Z,37.54
2018-07-11T17:55:06.339Z,38.34
2018-07-11T17:58:09.782Z,36.98
2018-07-11T18:00:56.297Z,38.45
2018-07-11T18:04:06.424Z,38.62
2018-07-11T18:06:39.292Z,36.71
2018-07-11T18:09:11.881Z,37.07
2018-07-11T18:11:56.817Z,36.80
2018-07-11T18:14:47.852Z,35.96
2018-07-11T18:17:33.626Z,37.61
2018-07-11T18:22:18.554Z,37.55
2018-07-11T18:25:00.473Z,38.22
2018-07-11T18:27:49.038Z,38.82
2018-07-11T18:32:34.179Z,39.44
2018-07-11T18:36:23.633Z,39.27
2018-07-11T18:39:08.975Z,39.67
2018-07-11T18:41:51.118Z,39.02
2018-07-11T18:45:11.214Z,39.50
2018-07-11T18:47:57.555Z,39.74
2018-07-11T18:51:13.847Z,39.85
2018-07-11T18:54:00.439Z,39.77
2018-07-11T18:56:48.148Z,38.95
2018-07-11T19:00:32.599Z,40.11
2018-07-11T19:03:36.982Z,39.32
2018-07-11T19:06:24.215Z,39.08
2018-07-11T19:09:22.842Z,41.03
2018-07-11T19:11:57.573Z,40.89
2018-07-11T19:14:41.715Z,40.82
2018-07-11T19:17:21.806Z,42.10
2018-07-11T19:20:35.958Z,42.02
2018-07-11T19:23:21.559Z,42.33
2018-07-11T19:25:59.366Z,42.50
2018-07-11T19:29:02.881Z,42.05
2018-07-11T19:32:38.529Z,41.26
2018-07-11T19:35:27.342Z,40.98
2018-07-11T19:38:02.198Z,41.86
2018-07-11T19:40:52.262Z,41.08
2018-07-11T19:43:46.854Z,41.79
2018-07-11T19:48:28.538Z,41.79
2018-07-11T19:51:13.105Z,41.98
2018-07-11T19:53:58.674Z,41.87
2018-07-11T19:56:37.194Z,41.66
2018-07-11T19:59:04.875Z,41.79
2018-07-11T20:01:32.566Z,43.18
2018-07-11T20:04:00.254Z,42.01
2018-07-11T20:06:28.106Z,42.98
2018-07-11T20:08:55.974Z,44.16
2018-07-11T20:11:23.791Z,44.36
2018-07-11T20:13:52.825Z,44.65
2018-07-11T20:16:21.195Z,44.81
2018-07-11T20:18:48.841Z,45.71
2018-07-11T20:21:16.617Z,46.21
2018-07-11T20:23:44.499Z,45.99
2018-07-11T20:26:12.503Z,47.15
2018-07-11T20:28:40.283Z,47.68
2018-07-11T20:31:08.003Z,47.26
2018-07-11T20:33:35.673Z,47.81
2018-07-11T20:36:03.807Z,47.37
2018-07-11T20:38:31.491Z,46.74
2018-07-11T20:40:59.177Z,48.60
2018-07-11T20:43:26.890Z,47.93
2018-07-11T20:45:54.542Z,48.69
2018-07-11T20:48:22.324Z,48.19
2018-07-11T20:50:49.923Z,48.47
2018-07-11T20:53:17.665Z,48.68
2018-07-11T20:55:45.276Z,49.36
2018-07-11T20:58:24.697Z,49.46
2018-07-11T21:01:10.000Z,49.58
2018-07-11T21:03:55.685Z,49.85
2018-07-11T21:06:39.798Z,49.78
2018-07-11T21:09:22.073Z,50.07
2018-07-11T21:16:15.179Z,50.15
2018-07-11T21:18:58.004Z,50.22
2018-07-11T21:21:25.861Z,50.02
2018-07-11T21:23:53.610Z,50.21
2018-07-11T21:26:21.454Z,50.86
2018-07-11T21:28:49.247Z,50.67
2018-07-11T21:31:16.869Z,50.72
2018-07-11T21:33:45.022Z,50.53
2018-07-11T21:36:12.831Z,51.01
2018-07-11T21:38:40.493Z,51.18
2018-07-11T21:41:08.266Z,51.27
2018-07-11T21:43:35.921Z,51.09
2018-07-11T21:46:03.701Z,51.64
2018-07-11T21:48:31.366Z,52.24
2018-07-11T21:50:59.017Z,52.31
2018-07-11T21:53:26.742Z,52.14
2018-07-11T21:55:54.512Z,52.42
2018-07-11T21:58:22.109Z,51.94
2018-07-11T22:00:49.737Z,52.70
2018-07-11T22:03:17.338Z,53.85
2018-07-11T22:05:45.012Z,53.72
2018-07-11T22:08:12.602Z,54.33
2018-07-11T22:10:40.350Z,54.46
2018-07-11T22:13:08.853Z,54.57
2018-07-11T22:15:36.602Z,53.93
2018-07-11T22:18:21.678Z,53.66
2018-07-11T22:20:47.937Z,54.88
2018-07-11T22:23:14.319Z,54.13
2018-07-11T22:25:40.622Z,53.82
2018-07-11T22:28:06.890Z,53.85
2018-07-11T22:30:33.194Z,53.49
2018-07-11T22:32:59.986Z,53.77
2018-07-11T22:35:26.842Z,54.25
2018-07-11T22:37:53.205Z,54.11
2018-07-11T22:40:19.470Z,54.27
2018-07-11T22:42:45.874Z,53.84
2018-07-11T22:45:12.253Z,54.44
2018-07-11T22:47:38.655Z,54.24
2018-07-11T22:50:04.923Z,54.45
2018-07-11T22:52:31.987Z,54.46
2018-07-11T22:54:58.226Z,54.66
2018-07-11T22:57:24.581Z,53.88
2018-07-11T22:59:51.142Z,54.60
2018-07-11T23:02:17.766Z,54.82
2018-07-11T23:04:44.040Z,53.97
2018-07-11T23:07:10.399Z,54.46
2018-07-11T23:09:37.221Z,55.95
2018-07-11T23:12:04.422Z,55.06
2018-07-11T23:14:31.889Z,56.07
2018-07-11T23:16:58.270Z,56.34
2018-07-11T23:19:24.670Z,56.91
2018-07-11T23:21:50.996Z,57.27
2018-07-11T23:24:17.346Z,57.26
2018-07-11T23:26:43.778Z,57.13
2018-07-11T23:29:10.307Z,57.60
2018-07-11T23:31:36.596Z,57.27
2018-07-11T23:34:03.002Z,57.72
2018-07-11T23:36:29.590Z,58.75
2018-07-11T23:38:55.942Z,58.61
2018-07-11T23:41:22.216Z,58.50
2018-07-11T23:43:48.562Z,58.36
2018-07-11T23:46:14.849Z,58.55
2018-07-11T23:48:41.224Z,58.25
2018-07-11T23:51:07.502Z,58.48
2018-07-11T23:53:33.775Z,59.46
2018-07-11T23:56:00.589Z,59.19
2018-07-11T23:58:27.516Z,59.32
